createdAt,value
2018-07-13T00:01:45.360Z,60.10
2018-07-13T00:04:13.911Z,60.20
2018-07-13T00:06:42.508Z,60.20
2018-07-13T00:09:12.440Z,60.30
2018-07-13T00:11:41.631Z,60.30
2018-07-13T00:14:20.364Z,60.40
2018-07-13T00:16:51.319Z,60.40
2018-07-13T00:19:20.671Z,60.30
2018-07-13T00:21:49.259Z,60.20
2018-07-13T00:24:17.837Z,60.20
2018-07-13T00:26:46.513Z,60.10
2018-07-13T00:29:15.051Z,60.10
2018-07-13T00:31:44.306Z,60.20
2018-07-13T00:34:12.863Z,60.10
2018-07-13T00:36:41.442Z,60.10
2018-07-13T00:39:12.202Z,60.10
2018-07-13T00:41:40.823Z,60.70
2018-07-13T00:44:09.794Z,60.20
2018-07-13T00:46:38.335Z,60.20
2018-07-13T00:51:35.310Z,60.50
2018-07-13T00:54:03.858Z,60.70
2018-07-13T00:56:32.434Z,60.60
2018-07-13T00:59:01.209Z,60.60
2018-07-13T01:01:29.807Z,60.50
2018-07-13T01:03:58.339Z,60.50
2018-07-13T01:06:26.953Z,60.50
2018-07-13T01:08:56.467Z,60.60
2018-07-13T01:11:25.019Z,60.80
2018-07-13T01:13:53.553Z,61.00
2018-07-13T01:16:22.100Z,61.10
2018-07-13T01:18:50.666Z,61.00
2018-07-13T01:21:19.216Z,61.10
2018-07-13T01:23:47.760Z,61.10
2018-07-13T01:26:16.283Z,61.10
2018-07-13T01:28:44.837Z,61.10
2018-07-13T01:31:13.362Z,61.10
2018-07-13T01:33:41.916Z,61.20
2018-07-13T01:36:11.274Z,61.20
2018-07-13T01:38:39.811Z,61.20
2018-07-13T01:41:08.360Z,61.30
2018-07-13T01:43:36.894Z,61.20
2018-07-13T01:46:05.531Z,61.10
2018-07-13T01:48:34.067Z,61.20
2018-07-13T01:51:02.616Z,61.30
2018-07-13T01:53:31.273Z,60.70
2018-07-13T01:55:59.801Z,61.40
2018-07-13T01:58:28.371Z,61.50
2018-07-13T02:00:56.925Z,61.70
2018-07-13T02:03:25.470Z,61.50
2018-07-13T02:05:53.995Z,61.50
2018-07-13T02:08:22.558Z,62.00
2018-07-13T02:10:51.066Z,61.60
2018-07-13T02:13:19.618Z,61.80
2018-07-13T02:15:48.133Z,61.90
2018-07-13T02:18:16.682Z,61.90
2018-07-13T02:20:45.202Z,62.00
2018-07-13T02:23:13.772Z,62.10
2018-07-13T02:25:42.340Z,62.20
2018-07-13T02:30:39.069Z,62.20
2018-07-13T02:33:07.641Z,62.30
2018-07-13T02:35:36.174Z,62.30
2018-07-13T02:38:04.753Z,62.30
2018-07-13T02:40:33.273Z,62.20
2018-07-13T02:43:01.815Z,62.10
2018-07-13T02:45:30.330Z,63.00
2018-07-13T02:47:58.859Z,62.10
2018-07-13T02:50:27.389Z,62.10
2018-07-13T02:52:55.947Z,62.90
2018-07-13T02:55:24.474Z,62.00
2018-07-13T02:57:53.035Z,62.10
2018-07-13T03:00:21.558Z,62.00
2018-07-13T03:02:50.129Z,62.10
2018-07-13T03:05:18.690Z,62.20
2018-07-13T03:07:47.273Z,62.20
2018-07-13T03:10:15.837Z,62.40
2018-07-13T03:12:44.471Z,62.50
2018-07-13T03:15:13.131Z,62.60
2018-07-13T03:17:41.650Z,62.50
2018-07-13T03:20:10.215Z,62.50
2018-07-13T03:22:39.119Z,62.50
2018-07-13T03:25:07.698Z,62.50
2018-07-13T03:27:36.229Z,63.20
2018-07-13T03:30:04.907Z,62.40
2018-07-13T03:32:33.422Z,62.40
2018-07-13T03:35:01.958Z,62.30
2018-07-13T03:37:30.491Z,62.30
2018-07-13T03:39:59.032Z,62.50
2018-07-13T03:42:27.587Z,62.20
2018-07-13T03:44:56.139Z,62.20
2018-07-13T03:47:24.686Z,62.10
2018-07-13T03:49:53.277Z,62.20
2018-07-13T03:52:21.793Z,62.30
2018-07-13T03:54:50.385Z,62.40
2018-07-13T03:57:19.497Z,62.50
2018-07-13T03:59:48.147Z,62.50
2018-07-13T04:02:16.718Z,62.60
2018-07-13T04:04:45.291Z,62.70
2018-07-13T04:07:13.910Z,62.80
2018-07-13T04:09:42.471Z,62.90
2018-07-13T04:12:11.015Z,62.90
2018-07-13T04:14:39.639Z,63.00
2018-07-13T04:17:08.190Z,63.10
2018-07-13T04:19:36.733Z,63.20
2018-07-13T04:22:05.541Z,63.20
2018-07-13T04:24:34.152Z,63.40
2018-07-13T04:27:02.795Z,63.50
2018-07-13T04:29:31.438Z,63.70
2018-07-13T04:31:59.959Z,63.60
2018-07-13T04:34:28.617Z,63.60
2018-07-13T04:36:57.194Z,63.60
2018-07-13T04:39:25.758Z,63.70
2018-07-13T04:41:54.396Z,63.90
2018-07-13T04:44:22.978Z,63.90
2018-07-13T04:46:51.603Z,64.10
2018-07-13T04:49:20.254Z,64.20
2018-07-13T04:51:48.940Z,64.20
2018-07-13T04:54:17.607Z,64.30
2018-07-13T04:56:46.274Z,64.70
2018-07-13T04:59:14.927Z,64.60
2018-07-13T05:01:43.584Z,64.70
2018-07-13T05:04:12.217Z,64.90
2018-07-13T05:06:40.886Z,64.90
2018-07-13T05:09:10.131Z,65.50
2018-07-13T05:11:39.045Z,65.40
2018-07-13T05:14:07.656Z,65.30
2018-07-13T05:16:36.289Z,65.50
2018-07-13T05:19:05.029Z,65.60
2018-07-13T05:21:34.265Z,65.60
2018-07-13T05:24:03.087Z,65.80
2018-07-13T05:26:31.789Z,65.70
2018-07-13T05:29:00.443Z,65.80
2018-07-13T05:31:29.091Z,66.00
2018-07-13T05:33:57.730Z,65.90
2018-07-13T05:36:26.378Z,65.90
2018-07-13T05:38:54.974Z,66.00
2018-07-13T05:43:51.897Z,66.10
2018-07-13T05:46:20.517Z,66.10
2018-07-13T05:48:49.128Z,66.10
2018-07-13T05:51:17.782Z,66.20
2018-07-13T05:53:46.418Z,66.30
2018-07-13T05:56:15.506Z,66.20
2018-07-13T05:58:44.221Z,66.50
2018-07-13T06:01:12.830Z,66.70
2018-07-13T06:03:41.462Z,66.70
2018-07-13T06:06:10.187Z,66.90
2018-07-13T06:08:39.482Z,67.30
2018-07-13T06:11:08.189Z,67.30
2018-07-13T06:16:05.018Z,68.20
2018-07-13T06:18:33.629Z,67.60
2018-07-13T06:21:02.225Z,67.70
2018-07-13T06:25:59.049Z,67.30
2018-07-13T06:28:27.625Z,67.30
2018-07-13T06:30:56.200Z,66.80
2018-07-13T06:33:24.775Z,66.90
2018-07-13T06:35:53.312Z,66.60
2018-07-13T06:38:21.892Z,66.30
2018-07-13T06:40:51.595Z,66.30
2018-07-13T06:45:48.416Z,68.70
2018-07-13T06:48:17.006Z,67.70
2018-07-13T06:50:45.640Z,67.80
2018-07-13T06:53:15.948Z,68.00
2018-07-13T06:55:44.839Z,67.60
2018-07-13T06:58:26.425Z,67.40
2018-07-13T07:01:08.380Z,67.10
2018-07-13T07:04:48.084Z,67.00
2018-07-13T07:07:24.903Z,67.20
2018-07-13T07:09:54.931Z,66.20
2018-07-13T07:14:34.940Z,66.70
2018-07-13T07:17:03.707Z,66.60
2018-07-13T07:19:32.287Z,66.40
2018-07-13T07:22:00.851Z,66.30
2018-07-13T07:24:29.488Z,66.00
2018-07-13T07:26:58.056Z,66.10
2018-07-13T07:29:26.678Z,65.90
2018-07-13T07:31:55.252Z,65.80
2018-07-13T07:34:23.802Z,65.80
2018-07-13T07:36:52.758Z,65.70
2018-07-13T07:39:21.306Z,65.70
2018-07-13T07:41:50.250Z,65.60
2018-07-13T07:44:18.962Z,66.20
2018-07-13T07:46:47.534Z,65.50
2018-07-13T07:49:16.081Z,65.50
2018-07-13T07:51:44.672Z,65.20
2018-07-13T07:54:13.287Z,65.10
2018-07-13T07:56:41.810Z,65.10
2018-07-13T07:59:10.369Z,65.00
2018-07-13T08:01:38.909Z,65.30
2018-07-13T08:04:07.518Z,64.70
2018-07-13T08:06:36.380Z,64.50
2018-07-13T08:09:05.403Z,64.60
2018-07-13T08:11:33.967Z,64.50
2018-07-13T08:14:02.612Z,64.50
2018-07-13T08:16:31.134Z,64.50
2018-07-13T08:18:59.780Z,64.30
2018-07-13T08:21:28.432Z,64.30
2018-07-13T08:23:57.095Z,64.20
2018-07-13T08:26:25.702Z,64.20
2018-07-13T08:28:54.339Z,64.10
2018-07-13T08:31:22.971Z,64.00
2018-07-13T08:33:51.485Z,64.00
2018-07-13T08:36:20.158Z,63.90
2018-07-13T08:38:48.700Z,63.90
2018-07-13T08:41:17.347Z,63.80
2018-07-13T08:43:45.947Z,63.70
2018-07-13T08:46:14.530Z,63.50
2018-07-13T08:48:43.143Z,63.50
2018-07-13T08:51:11.820Z,63.60
2018-07-13T08:53:40.330Z,63.40
2018-07-13T08:56:08.997Z,62.90
2018-07-13T08:58:38.477Z,62.60
2018-07-13T09:01:07.073Z,62.40
2018-07-13T09:03:35.732Z,61.90
2018-07-13T09:06:04.365Z,62.00
2018-07-13T09:08:33.037Z,62.30
2018-07-13T09:11:01.622Z,61.20
2018-07-13T09:13:30.248Z,61.40
2018-07-13T09:15:58.805Z,61.30
2018-07-13T09:18:27.379Z,61.20
2018-07-13T09:20:55.982Z,61.40
2018-07-13T09:23:24.544Z,61.00
2018-07-13T09:25:53.134Z,61.30
2018-07-13T09:28:21.788Z,61.10
2018-07-13T09:35:47.892Z,60.10
2018-07-13T09:38:16.664Z,60.20
2018-07-13T09:40:45.282Z,60.20
2018-07-13T09:43:13.897Z,60.20
2018-07-13T09:45:42.514Z,60.00
2018-07-13T09:48:11.058Z,60.20
2018-07-13T09:50:39.668Z,59.90
2018-07-13T09:53:08.305Z,59.50
2018-07-13T09:55:36.972Z,58.80
2018-07-13T09:58:05.571Z,59.10
2018-07-13T10:00:39.635Z,57.20
2018-07-13T10:03:08.148Z,57.60
2018-07-13T10:05:36.797Z,54.70
2018-07-13T10:08:05.510Z,54.70
2018-07-13T10:10:34.116Z,54.70
2018-07-13T10:13:02.829Z,55.30
2018-07-13T10:15:31.435Z,54.60
2018-07-13T10:25:28.528Z,54.20
2018-07-13T10:27:57.462Z,54.10
2018-07-13T10:30:26.108Z,53.50
2018-07-13T10:32:54.749Z,53.10
2018-07-13T10:35:23.426Z,53.10
2018-07-13T10:37:51.944Z,53.20
2018-07-13T10:40:20.506Z,53.10
2018-07-13T10:42:49.179Z,53.10
2018-07-13T10:45:17.764Z,53.00
2018-07-13T10:47:46.380Z,52.80
2018-07-13T10:50:14.925Z,52.70
2018-07-13T10:52:43.475Z,52.70
2018-07-13T10:55:12.016Z,52.60
2018-07-13T10:57:40.633Z,52.60
2018-07-13T11:00:09.278Z,52.40
2018-07-13T11:02:37.845Z,52.30
2018-07-13T11:05:06.392Z,52.50
2018-07-13T11:07:34.942Z,52.40
2018-07-13T11:10:03.538Z,51.50
2018-07-13T11:12:32.153Z,51.10
2018-07-13T11:17:28.937Z,51.20
2018-07-13T11:19:57.480Z,51.20
2018-07-13T11:22:26.003Z,51.00
2018-07-13T11:24:54.570Z,50.40
2018-07-13T11:27:23.295Z,50.30
2018-07-13T11:29:51.936Z,50.10
2018-07-13T11:32:20.495Z,50.10
2018-07-13T11:34:49.202Z,49.70
2018-07-13T11:37:17.837Z,49.20
2018-07-13T11:39:46.321Z,46.20
2018-07-13T11:42:14.904Z,43.30
2018-07-13T11:44:43.575Z,41.40
2018-07-13T11:47:12.106Z,40.70
2018-07-13T11:49:40.714Z,40.30
2018-07-13T11:52:09.276Z,40.00
2018-07-13T11:54:37.905Z,40.10
2018-07-13T11:57:10.611Z,40.10
2018-07-13T11:59:39.954Z,40.10
2018-07-13T12:02:08.505Z,39.90
2018-07-13T12:04:37.208Z,39.80
2018-07-13T12:07:06.687Z,40.10
2018-07-13T12:09:35.303Z,40.10
2018-07-13T12:12:03.884Z,39.50
2018-07-13T12:14:32.423Z,39.50
2018-07-13T12:17:01.130Z,40.00
2018-07-13T12:19:30.022Z,40.10
2018-07-13T12:21:59.140Z,40.20
2018-07-13T12:24:27.816Z,39.70
2018-07-13T12:26:56.379Z,40.30
2018-07-13T12:29:25.411Z,40.50
2018-07-13T12:31:54.030Z,40.70
2018-07-13T12:34:22.583Z,41.00
2018-07-13T12:36:51.188Z,41.10
2018-07-13T12:39:19.900Z,41.60
2018-07-13T12:41:48.486Z,41.60
2018-07-13T12:44:17.148Z,41.90
2018-07-13T12:46:45.729Z,41.40
2018-07-13T12:49:14.669Z,41.40
2018-07-13T12:51:44.110Z,41.40
2018-07-13T12:54:13.644Z,41.40
2018-07-13T12:56:42.217Z,41.20
2018-07-13T12:59:10.784Z,41.30
2018-07-13T13:01:39.741Z,41.60
2018-07-13T13:04:08.306Z,40.70
2018-07-13T13:06:36.997Z,40.60
2018-07-13T13:09:06.004Z,40.30
2018-07-13T13:11:34.625Z,40.20
2018-07-13T13:14:03.698Z,40.30
2018-07-13T13:16:32.448Z,40.40
2018-07-13T13:19:00.969Z,40.80
2018-07-13T13:21:30.397Z,40.90
2018-07-13T13:23:58.953Z,41.20
2018-07-13T13:26:27.562Z,41.20
2018-07-13T13:28:56.112Z,41.20
2018-07-13T13:31:24.772Z,41.40
2018-07-13T13:33:53.320Z,41.50
2018-07-13T13:36:21.911Z,41.70
2018-07-13T13:38:50.430Z,41.90
2018-07-13T13:41:19.033Z,41.80
2018-07-13T13:43:47.559Z,42.00
2018-07-13T13:46:16.113Z,41.90
2018-07-13T13:48:44.651Z,42.00
2018-07-13T13:51:13.221Z,41.80
2018-07-13T13:53:41.862Z,41.90
2018-07-13T13:56:10.438Z,40.90
2018-07-13T13:58:38.985Z,40.80
2018-07-13T14:01:08.130Z,41.00
2018-07-13T14:03:37.242Z,40.90
2018-07-13T14:06:05.930Z,40.80
2018-07-13T14:08:34.467Z,40.40
2018-07-13T14:11:03.075Z,40.20
2018-07-13T14:13:31.599Z,40.30
2018-07-13T14:16:00.397Z,41.10
2018-07-13T14:20:57.245Z,40.90
2018-07-13T14:23:25.917Z,41.10
2018-07-13T14:25:54.611Z,41.60
2018-07-13T14:28:23.242Z,40.90
2018-07-13T14:30:51.777Z,41.00
2018-07-13T14:33:20.330Z,40.90
2018-07-13T14:35:48.888Z,41.10
2018-07-13T14:38:17.570Z,41.10
2018-07-13T14:43:14.417Z,41.00
2018-07-13T14:45:43.027Z,40.90
2018-07-13T14:48:11.601Z,41.00
2018-07-13T14:50:40.181Z,41.20
2018-07-13T14:53:08.746Z,41.30
2018-07-13T14:55:37.617Z,41.20
2018-07-13T14:58:06.232Z,41.10
2018-07-13T15:03:03.261Z,41.30
2018-07-13T15:05:31.888Z,41.30
2018-07-13T15:08:00.583Z,41.40
2018-07-13T15:10:29.136Z,41.50
2018-07-13T15:15:26.229Z,42.30
2018-07-13T15:17:55.050Z,41.70
2018-07-13T15:20:23.590Z,41.70
2018-07-13T15:25:20.589Z,42.10
2018-07-13T15:27:49.209Z,41.40
2018-07-13T15:30:17.749Z,41.70
2018-07-13T15:32:46.445Z,41.90
2018-07-13T15:35:16.660Z,42.10
2018-07-13T15:37:45.717Z,42.10
2018-07-13T15:40:14.263Z,42.00
2018-07-13T15:42:42.837Z,42.10
2018-07-13T15:45:11.397Z,42.20
2018-07-13T15:50:08.199Z,42.00
2018-07-13T15:52:36.752Z,42.10
2018-07-13T15:55:05.488Z,42.10
2018-07-13T15:57:34.050Z,42.00
2018-07-13T16:00:02.721Z,42.10
2018-07-13T16:02:31.417Z,42.20
2018-07-13T16:04:59.934Z,42.20
2018-07-13T16:07:29.032Z,42.40
2018-07-13T16:09:57.610Z,42.30
2018-07-13T16:12:26.238Z,42.90
2018-07-13T16:14:54.763Z,42.30
2018-07-13T16:17:23.395Z,42.30
2018-07-13T16:19:52.082Z,42.10
2018-07-13T16:22:20.701Z,42.20
2018-07-13T16:24:49.397Z,42.00
2018-07-13T16:27:17.978Z,42.10
2018-07-13T16:29:46.667Z,42.00
2018-07-13T16:32:15.355Z,42.10
2018-07-13T16:34:44.039Z,42.00
2018-07-13T16:37:12.649Z,42.00
2018-07-13T16:39:41.291Z,42.30
2018-07-13T16:42:09.855Z,42.50
2018-07-13T16:44:38.752Z,42.40
2018-07-13T16:49:35.562Z,42.40
2018-07-13T16:52:04.094Z,42.30
2018-07-13T16:54:32.637Z,42.20
2018-07-13T16:57:01.222Z,41.80
2018-07-13T16:59:29.776Z,41.90
2018-07-13T17:01:58.387Z,41.90
2018-07-13T17:04:26.980Z,41.90
2018-07-13T17:06:55.524Z,42.10
2018-07-13T17:09:24.209Z,42.20
2018-07-13T17:11:53.197Z,42.20
2018-07-13T17:14:21.742Z,42.30
2018-07-13T17:16:50.452Z,42.40
2018-07-13T17:19:19.139Z,42.50
2018-07-13T17:21:49.003Z,42.50
2018-07-13T17:24:17.877Z,42.60
2018-07-13T17:26:46.586Z,42.70
2018-07-13T17:29:15.360Z,42.80
2018-07-13T17:31:43.906Z,42.90
2018-07-13T17:34:12.522Z,42.90
2018-07-13T17:36:41.209Z,42.90
2018-07-13T17:39:09.817Z,43.10
2018-07-13T17:41:38.569Z,43.10
2018-07-13T17:44:07.631Z,43.20
2018-07-13T17:49:04.389Z,43.40
2018-07-13T17:51:32.918Z,43.30
2018-07-13T17:54:01.491Z,44.00
2018-07-13T17:56:30.285Z,43.30
2018-07-13T17:58:59.102Z,43.60
2018-07-13T18:01:27.654Z,43.80
2018-07-13T18:03:56.195Z,44.00
2018-07-13T18:06:25.146Z,44.20
2018-07-13T18:08:53.784Z,44.40
2018-07-13T18:11:22.310Z,44.50
2018-07-13T18:13:51.313Z,44.60
2018-07-13T18:16:19.855Z,44.70
2018-07-13T18:18:48.374Z,44.70
2018-07-13T18:21:16.955Z,44.80
2018-07-13T18:23:45.488Z,45.10
2018-07-13T18:26:14.023Z,45.40
2018-07-13T18:28:42.554Z,45.60
2018-07-13T18:31:11.254Z,45.90
2018-07-13T18:33:39.854Z,46.10
2018-07-13T18:36:08.415Z,46.30
2018-07-13T18:41:05.529Z,46.70
2018-07-13T18:43:34.081Z,46.90
2018-07-13T18:46:02.699Z,47.00
2018-07-13T18:48:31.316Z,47.10
2018-07-13T18:50:59.860Z,47.30
2018-07-13T18:53:28.576Z,47.40
2018-07-13T18:55:57.155Z,47.40
2018-07-13T18:58:25.711Z,47.60
2018-07-13T19:00:54.254Z,47.50
2018-07-13T19:03:22.833Z,47.60
2018-07-13T19:05:51.407Z,47.70
2018-07-13T19:08:20.056Z,47.90
2018-07-13T19:10:48.614Z,48.00
2018-07-13T19:13:17.277Z,48.10
2018-07-13T19:15:46.648Z,48.30
2018-07-13T19:18:15.231Z,48.50
2018-07-13T19:20:43.799Z,49.20
2018-07-13T19:23:12.380Z,48.80
2018-07-13T19:25:41.290Z,48.90
2018-07-13T19:28:09.911Z,49.00
2018-07-13T19:30:38.584Z,49.20
2018-07-13T19:33:07.728Z,49.20
2018-07-13T19:35:36.310Z,49.30
2018-07-13T19:38:05.133Z,49.40
2018-07-13T19:40:33.703Z,49.50
2018-07-13T19:43:02.233Z,49.60
2018-07-13T19:45:31.004Z,49.70
2018-07-13T19:47:59.663Z,49.80
2018-07-13T19:50:28.377Z,49.90
2018-07-13T19:52:56.977Z,50.00
2018-07-13T19:55:25.575Z,50.20
2018-07-13T19:57:54.205Z,50.20
2018-07-13T20:00:22.803Z,50.40
2018-07-13T20:02:51.399Z,50.40
2018-07-13T20:05:20.073Z,50.60
2018-07-13T20:07:48.662Z,50.60
2018-07-13T20:10:17.223Z,50.70
2018-07-13T20:12:45.817Z,50.70
2018-07-13T20:15:15.193Z,50.70
2018-07-13T20:17:43.762Z,50.80
2018-07-13T20:20:12.307Z,50.80
2018-07-13T20:22:40.953Z,50.90
2018-07-13T20:25:09.506Z,50.90
2018-07-13T20:30:07.440Z,50.90
2018-07-13T20:32:36.199Z,50.80
2018-07-13T20:35:04.839Z,50.80
2018-07-13T20:37:33.395Z,50.70
2018-07-13T20:40:02.036Z,51.50
2018-07-13T20:42:30.586Z,51.00
2018-07-13T20:44:59.217Z,51.00
2018-07-13T20:47:27.838Z,51.10
2018-07-13T20:49:56.314Z,51.20
2018-07-13T20:52:24.878Z,51.20
2018-07-13T20:54:53.399Z,51.30
2018-07-13T20:57:21.961Z,51.40
2018-07-13T20:59:50.523Z,51.40
2018-07-13T21:02:19.121Z,51.50
2018-07-13T21:04:47.654Z,51.60
2018-07-13T21:07:16.267Z,51.70
2018-07-13T21:09:44.812Z,51.70
2018-07-13T21:12:13.370Z,51.80
2018-07-13T21:14:41.898Z,51.90
2018-07-13T21:17:10.494Z,51.90
2018-07-13T21:19:39.285Z,52.00
2018-07-13T21:22:07.866Z,52.00
2018-07-13T21:24:36.432Z,52.10
2018-07-13T21:27:05.239Z,52.20
2018-07-13T21:29:33.823Z,52.30
2018-07-13T21:32:02.382Z,52.50
2018-07-13T21:34:30.914Z,53.10
2018-07-13T21:36:59.486Z,52.50
2018-07-13T21:39:28.042Z,52.60
2018-07-13T21:41:56.701Z,52.70
2018-07-13T21:44:25.313Z,52.70
2018-07-13T21:46:53.863Z,52.70
2018-07-13T21:49:22.511Z,52.80
2018-07-13T21:51:51.089Z,52.90
2018-07-13T21:54:19.624Z,52.90
2018-07-13T21:56:48.199Z,53.00
2018-07-13T21:59:16.806Z,53.00
2018-07-13T22:01:45.631Z,53.00
2018-07-13T22:04:14.173Z,53.10
2018-07-13T22:06:43.201Z,53.20
2018-07-13T22:09:11.726Z,53.10
2018-07-13T22:11:40.283Z,53.80
2018-07-13T22:14:09.060Z,53.20
2018-07-13T22:16:37.917Z,53.20
2018-07-13T22:19:06.588Z,53.90
2018-07-13T22:21:35.150Z,53.30
2018-07-13T22:24:03.720Z,53.40
2018-07-13T22:26:32.367Z,53.30
2018-07-13T22:29:00.949Z,53.30
2018-07-13T22:31:29.825Z,53.30
2018-07-13T22:33:58.383Z,53.30
2018-07-13T22:36:26.941Z,53.30
2018-07-13T22:38:55.493Z,53.30
2018-07-13T22:41:24.002Z,53.30
2018-07-13T22:43:52.572Z,53.40
2018-07-13T22:46:21.134Z,53.90
2018-07-13T22:48:49.691Z,53.40
2018-07-13T22:51:18.213Z,53.50
2018-07-13T22:53:46.781Z,53.60
2018-07-13T22:56:15.337Z,53.60
2018-07-13T22:58:43.935Z,53.60
2018-07-13T23:01:12.462Z,53.70
2018-07-13T23:03:41.001Z,53.70
2018-07-13T23:06:09.535Z,53.70
2018-07-13T23:08:38.191Z,53.80
2018-07-13T23:11:07.039Z,53.90
2018-07-13T23:13:35.597Z,54.00
2018-07-13T23:16:04.208Z,53.90
2018-07-13T23:18:32.758Z,54.70
2018-07-13T23:21:01.328Z,54.10
2018-07-13T23:23:29.881Z,54.10
2018-07-13T23:25:58.432Z,54.20
2018-07-13T23:28:26.978Z,54.20
2018-07-13T23:30:55.496Z,54.30
2018-07-13T23:33:24.167Z,54.30
2018-07-13T23:38:20.941Z,54.10
2018-07-13T23:40:49.492Z,54.40
2018-07-13T23:43:18.057Z,54.40
2018-07-13T23:45:46.625Z,54.50
2018-07-13T23:48:15.273Z,54.60
2018-07-13T23:50:43.836Z,54.60
2018-07-13T23:53:12.402Z,54.60
2018-07-13T23:55:40.940Z,54.60
2018-07-13T23:58:09.517Z,54.70
